Terminal Aerodrome Forecast
Issued by NWS

Home | Current Version | Previous Version | Text Only | Print | Product List | Glossary On
Versions: 1 2 3 4 5 6 7 8 9 10 11 12 13 14
000
FTUS43 KIND 221100
TAFBMG
TAF
KBMG 221130Z 2212/2312 17009KT P6SM VCSH BKN035 OVC050
      WS020/23050KT
     FM221700 19011G20KT P6SM VCSH BKN040 OVC060 WS020/23055KT
     FM222300 18008KT P6SM VCSH OVC040
      AMD LTD TO CLD VIS AND WIND TIL 221400=

USA.gov is the U.S. government's official web portal to all federal, state and local government web resources and services.